sensor_id;sensor_type;location;lat;lon;timestamp;P1;durP1;ratioP1;P2;durP2;ratioP2
7487;SDS011;3785;52.260;4.728;2023-06-22T00:00:07;20.92;;;11.82;;
7487;SDS011;3785;52.260;4.728;2023-06-22T00:03:31;18.45;;;12.30;;
7487;SDS011;3785;52.260;4.728;2023-06-22T00:06:52;20.55;;;12.00;;
7487;SDS011;3785;52.260;4.728;2023-06-22T00:10:13;23.33;;;13.25;;
7487;SDS011;3785;52.260;4.728;2023-06-22T00:13:33;22.02;;;12.75;;
7487;SDS011;3785;52.260;4.728;2023-06-22T00:16:54;22.20;;;12.88;;
7487;SDS011;3785;52.260;4.728;2023-06-22T00:20:15;22.35;;;12.05;;
7487;SDS011;3785;52.260;4.728;2023-06-22T00:23:38;18.15;;;12.32;;
7487;SDS011;3785;52.260;4.728;2023-06-22T00:26:58;24.40;;;13.10;;
7487;SDS011;3785;52.260;4.728;2023-06-22T00:30:19;24.80;;;12.65;;
7487;SDS011;3785;52.260;4.728;2023-06-22T00:33:39;20.38;;;12.70;;
7487;SDS011;3785;52.260;4.728;2023-06-22T00:37:00;21.63;;;13.13;;
7487;SDS011;3785;52.260;4.728;2023-06-22T00:40:20;22.90;;;14.05;;
7487;SDS011;3785;52.260;4.728;2023-06-22T00:43:41;24.23;;;13.23;;
7487;SDS011;3785;52.260;4.728;2023-06-22T00:47:02;20.88;;;12.85;;
7487;SDS011;3785;52.260;4.728;2023-06-22T00:50:27;20.33;;;11.98;;
7487;SDS011;3785;52.260;4.728;2023-06-22T00:53:53;18.88;;;11.80;;
7487;SDS011;3785;52.260;4.728;2023-06-22T00:57:14;19.58;;;12.07;;
7487;SDS011;3785;52.260;4.728;2023-06-22T01:00:36;18.80;;;11.75;;
7487;SDS011;3785;52.260;4.728;2023-06-22T01:03:57;19.88;;;12.18;;
7487;SDS011;3785;52.260;4.728;2023-06-22T01:10:53;19.92;;;12.80;;
7487;SDS011;3785;52.260;4.728;2023-06-22T01:14:21;22.17;;;12.57;;
7487;SDS011;3785;52.260;4.728;2023-06-22T01:17:44;19.38;;;11.32;;
7487;SDS011;3785;52.260;4.728;2023-06-22T01:21:06;21.65;;;13.07;;
7487;SDS011;3785;52.260;4.728;2023-06-22T01:24:30;23.85;;;13.35;;
7487;SDS011;3785;52.260;4.728;2023-06-22T01:28:03;23.45;;;13.60;;
7487;SDS011;3785;52.260;4.728;2023-06-22T01:31:35;22.92;;;12.40;;
7487;SDS011;3785;52.260;4.728;2023-06-22T01:34:56;21.67;;;13.07;;
7487;SDS011;3785;52.260;4.728;2023-06-22T01:38:18;26.77;;;14.13;;
7487;SDS011;3785;52.260;4.728;2023-06-22T01:41:39;28.30;;;13.98;;
7487;SDS011;3785;52.260;4.728;2023-06-22T01:45:02;24.13;;;13.52;;
7487;SDS011;3785;52.260;4.728;2023-06-22T01:48:23;23.50;;;13.82;;
7487;SDS011;3785;52.260;4.728;2023-06-22T01:51:45;28.17;;;14.52;;
7487;SDS011;3785;52.260;4.728;2023-06-22T01:55:06;22.83;;;13.27;;
7487;SDS011;3785;52.260;4.728;2023-06-22T01:58:28;24.05;;;13.65;;
7487;SDS011;3785;52.260;4.728;2023-06-22T02:02:23;25.77;;;14.02;;
7487;SDS011;3785;52.260;4.728;2023-06-22T02:05:38;23.92;;;13.32;;
7487;SDS011;3785;52.260;4.728;2023-06-22T02:09:06;23.20;;;13.43;;
7487;SDS011;3785;52.260;4.728;2023-06-22T02:12:29;24.50;;;13.35;;
7487;SDS011;3785;52.260;4.728;2023-06-22T02:15:50;24.38;;;13.77;;
7487;SDS011;3785;52.260;4.728;2023-06-22T02:19:11;26.15;;;14.20;;
7487;SDS011;3785;52.260;4.728;2023-06-22T02:22:31;23.80;;;13.65;;
7487;SDS011;3785;52.260;4.728;2023-06-22T02:25:52;23.10;;;14.02;;
7487;SDS011;3785;52.260;4.728;2023-06-22T02:29:12;23.40;;;13.10;;
7487;SDS011;3785;52.260;4.728;2023-06-22T02:32:33;21.98;;;12.63;;
7487;SDS011;3785;52.260;4.728;2023-06-22T02:35:54;25.48;;;13.77;;
7487;SDS011;3785;52.260;4.728;2023-06-22T02:39:14;25.58;;;14.02;;
7487;SDS011;3785;52.260;4.728;2023-06-22T02:42:35;22.20;;;13.38;;
7487;SDS011;3785;52.260;4.728;2023-06-22T02:45:56;25.20;;;14.40;;
7487;SDS011;3785;52.260;4.728;2023-06-22T02:49:17;25.73;;;14.23;;
7487;SDS011;3785;52.260;4.728;2023-06-22T02:52:37;26.05;;;14.68;;
7487;SDS011;3785;52.260;4.728;2023-06-22T02:55:59;21.02;;;13.38;;
7487;SDS011;3785;52.260;4.728;2023-06-22T02:59:21;23.90;;;13.90;;
7487;SDS011;3785;52.260;4.728;2023-06-22T03:02:45;23.70;;;14.13;;
7487;SDS011;3785;52.260;4.728;2023-06-22T03:06:07;27.73;;;14.90;;
7487;SDS011;3785;52.260;4.728;2023-06-22T03:09:28;23.58;;;14.70;;
7487;SDS011;3785;52.260;4.728;2023-06-22T03:12:49;26.08;;;15.32;;
7487;SDS011;3785;52.260;4.728;2023-06-22T03:16:10;27.63;;;15.60;;
7487;SDS011;3785;52.260;4.728;2023-06-22T03:19:31;24.02;;;14.40;;
7487;SDS011;3785;52.260;4.728;2023-06-22T03:22:51;27.10;;;14.32;;
7487;SDS011;3785;52.260;4.728;2023-06-22T03:26:16;25.92;;;14.98;;
7487;SDS011;3785;52.260;4.728;2023-06-22T03:29:37;25.08;;;14.93;;
7487;SDS011;3785;52.260;4.728;2023-06-22T03:32:58;24.10;;;15.30;;
7487;SDS011;3785;52.260;4.728;2023-06-22T03:36:18;27.45;;;15.27;;
7487;SDS011;3785;52.260;4.728;2023-06-22T03:39:39;27.10;;;15.00;;
7487;SDS011;3785;52.260;4.728;2023-06-22T03:42:59;26.77;;;16.48;;
7487;SDS011;3785;52.260;4.728;2023-06-22T03:46:20;27.27;;;15.05;;
7487;SDS011;3785;52.260;4.728;2023-06-22T03:49:40;26.30;;;15.40;;
7487;SDS011;3785;52.260;4.728;2023-06-22T03:53:01;27.52;;;14.80;;
7487;SDS011;3785;52.260;4.728;2023-06-22T03:56:22;22.75;;;14.23;;
7487;SDS011;3785;52.260;4.728;2023-06-22T03:59:42;23.50;;;13.68;;
7487;SDS011;3785;52.260;4.728;2023-06-22T04:03:03;27.88;;;13.77;;
7487;SDS011;3785;52.260;4.728;2023-06-22T04:06:23;28.67;;;13.73;;
7487;SDS011;3785;52.260;4.728;2023-06-22T04:09:44;24.05;;;12.80;;
7487;SDS011;3785;52.260;4.728;2023-06-22T04:13:04;23.35;;;13.98;;
7487;SDS011;3785;52.260;4.728;2023-06-22T04:16:25;25.48;;;13.13;;
7487;SDS011;3785;52.260;4.728;2023-06-22T04:19:46;22.58;;;13.55;;
7487;SDS011;3785;52.260;4.728;2023-06-22T04:23:06;28.90;;;14.27;;
7487;SDS011;3785;52.260;4.728;2023-06-22T04:26:27;26.50;;;14.77;;
7487;SDS011;3785;52.260;4.728;2023-06-22T04:29:47;23.75;;;13.77;;
7487;SDS011;3785;52.260;4.728;2023-06-22T04:33:08;24.55;;;13.38;;
7487;SDS011;3785;52.260;4.728;2023-06-22T04:36:33;21.40;;;13.38;;
7487;SDS011;3785;52.260;4.728;2023-06-22T04:39:57;23.98;;;13.73;;
7487;SDS011;3785;52.260;4.728;2023-06-22T04:43:18;24.88;;;13.43;;
7487;SDS011;3785;52.260;4.728;2023-06-22T04:46:39;24.42;;;14.52;;
7487;SDS011;3785;52.260;4.728;2023-06-22T04:50:00;27.98;;;15.20;;
7487;SDS011;3785;52.260;4.728;2023-06-22T04:53:26;29.30;;;14.85;;
7487;SDS011;3785;52.260;4.728;2023-06-22T04:56:52;26.98;;;14.13;;
7487;SDS011;3785;52.260;4.728;2023-06-22T05:00:17;29.23;;;15.77;;
7487;SDS011;3785;52.260;4.728;2023-06-22T05:03:39;26.10;;;15.23;;
7487;SDS011;3785;52.260;4.728;2023-06-22T05:07:02;27.88;;;15.85;;
7487;SDS011;3785;52.260;4.728;2023-06-22T05:10:22;29.77;;;16.35;;
7487;SDS011;3785;52.260;4.728;2023-06-22T05:13:43;30.33;;;16.70;;
7487;SDS011;3785;52.260;4.728;2023-06-22T05:17:04;28.52;;;15.82;;
7487;SDS011;3785;52.260;4.728;2023-06-22T05:20:24;32.70;;;16.75;;
7487;SDS011;3785;52.260;4.728;2023-06-22T05:23:45;24.30;;;14.02;;
7487;SDS011;3785;52.260;4.728;2023-06-22T05:27:05;24.90;;;13.65;;
7487;SDS011;3785;52.260;4.728;2023-06-22T05:30:26;26.33;;;13.60;;
7487;SDS011;3785;52.260;4.728;2023-06-22T05:33:47;21.10;;;11.68;;
7487;SDS011;3785;52.260;4.728;2023-06-22T05:37:11;20.85;;;12.35;;
7487;SDS011;3785;52.260;4.728;2023-06-22T05:40:32;24.38;;;12.18;;
7487;SDS011;3785;52.260;4.728;2023-06-22T05:43:53;18.98;;;10.60;;
7487;SDS011;3785;52.260;4.728;2023-06-22T05:47:13;14.65;;;9.10;;
7487;SDS011;3785;52.260;4.728;2023-06-22T05:50:34;15.77;;;9.02;;
7487;SDS011;3785;52.260;4.728;2023-06-22T05:53:55;14.50;;;8.82;;
7487;SDS011;3785;52.260;4.728;2023-06-22T05:57:15;12.55;;;7.55;;
7487;SDS011;3785;52.260;4.728;2023-06-22T06:00:36;12.68;;;7.75;;
7487;SDS011;3785;52.260;4.728;2023-06-22T06:03:56;12.70;;;7.93;;
7487;SDS011;3785;52.260;4.728;2023-06-22T06:07:17;10.25;;;6.70;;
7487;SDS011;3785;52.260;4.728;2023-06-22T06:10:38;9.80;;;7.13;;
7487;SDS011;3785;52.260;4.728;2023-06-22T06:13:59;11.10;;;7.43;;
7487;SDS011;3785;52.260;4.728;2023-06-22T06:17:19;10.50;;;6.80;;
7487;SDS011;3785;52.260;4.728;2023-06-22T06:20:40;9.48;;;7.25;;
7487;SDS011;3785;52.260;4.728;2023-06-22T06:24:00;10.77;;;6.78;;
7487;SDS011;3785;52.260;4.728;2023-06-22T06:27:21;9.77;;;6.93;;
7487;SDS011;3785;52.260;4.728;2023-06-22T06:30:49;11.80;;;6.95;;
7487;SDS011;3785;52.260;4.728;2023-06-22T06:34:11;11.80;;;6.57;;
7487;SDS011;3785;52.260;4.728;2023-06-22T06:37:35;9.75;;;6.88;;
7487;SDS011;3785;52.260;4.728;2023-06-22T06:40:57;10.40;;;6.75;;
7487;SDS011;3785;52.260;4.728;2023-06-22T06:44:18;7.93;;;5.70;;
7487;SDS011;3785;52.260;4.728;2023-06-22T06:47:39;9.55;;;5.88;;
7487;SDS011;3785;52.260;4.728;2023-06-22T06:50:59;9.07;;;6.25;;
7487;SDS011;3785;52.260;4.728;2023-06-22T06:54:20;10.45;;;6.43;;
7487;SDS011;3785;52.260;4.728;2023-06-22T06:57:41;9.13;;;5.88;;
7487;SDS011;3785;52.260;4.728;2023-06-22T07:01:02;9.07;;;6.00;;
7487;SDS011;3785;52.260;4.728;2023-06-22T07:04:23;8.73;;;5.78;;
7487;SDS011;3785;52.260;4.728;2023-06-22T07:07:43;9.18;;;5.57;;
7487;SDS011;3785;52.260;4.728;2023-06-22T07:11:04;8.68;;;6.28;;
7487;SDS011;3785;52.260;4.728;2023-06-22T07:14:24;8.40;;;5.80;;
7487;SDS011;3785;52.260;4.728;2023-06-22T07:17:45;9.52;;;5.13;;
7487;SDS011;3785;52.260;4.728;2023-06-22T07:21:05;7.97;;;5.85;;
7487;SDS011;3785;52.260;4.728;2023-06-22T07:24:27;7.35;;;4.90;;
7487;SDS011;3785;52.260;4.728;2023-06-22T07:31:24;7.53;;;5.25;;
7487;SDS011;3785;52.260;4.728;2023-06-22T07:34:45;7.07;;;4.50;;
7487;SDS011;3785;52.260;4.728;2023-06-22T07:38:05;6.20;;;3.92;;
7487;SDS011;3785;52.260;4.728;2023-06-22T07:41:26;6.40;;;4.00;;
7487;SDS011;3785;52.260;4.728;2023-06-22T07:44:47;6.80;;;4.85;;
7487;SDS011;3785;52.260;4.728;2023-06-22T07:48:07;5.57;;;4.00;;
7487;SDS011;3785;52.260;4.728;2023-06-22T07:51:28;6.88;;;4.13;;
7487;SDS011;3785;52.260;4.728;2023-06-22T07:54:49;6.78;;;4.45;;
7487;SDS011;3785;52.260;4.728;2023-06-22T07:58:09;7.75;;;4.13;;
7487;SDS011;3785;52.260;4.728;2023-06-22T08:01:30;7.00;;;4.50;;
7487;SDS011;3785;52.260;4.728;2023-06-22T08:04:50;6.88;;;4.35;;
7487;SDS011;3785;52.260;4.728;2023-06-22T08:08:11;6.72;;;4.65;;
7487;SDS011;3785;52.260;4.728;2023-06-22T08:11:32;7.13;;;4.28;;
7487;SDS011;3785;52.260;4.728;2023-06-22T08:14:52;7.00;;;5.18;;
7487;SDS011;3785;52.260;4.728;2023-06-22T08:18:13;7.50;;;5.03;;
7487;SDS011;3785;52.260;4.728;2023-06-22T08:21:33;7.47;;;5.60;;
7487;SDS011;3785;52.260;4.728;2023-06-22T08:24:54;9.70;;;5.78;;
7487;SDS011;3785;52.260;4.728;2023-06-22T08:28:14;8.90;;;6.05;;
7487;SDS011;3785;52.260;4.728;2023-06-22T08:31:35;7.25;;;4.97;;
7487;SDS011;3785;52.260;4.728;2023-06-22T08:34:56;9.05;;;6.07;;
7487;SDS011;3785;52.260;4.728;2023-06-22T08:38:17;8.85;;;6.13;;
7487;SDS011;3785;52.260;4.728;2023-06-22T08:41:38;9.95;;;6.30;;
7487;SDS011;3785;52.260;4.728;2023-06-22T08:44:59;9.50;;;6.20;;
7487;SDS011;3785;52.260;4.728;2023-06-22T08:48:20;8.02;;;5.63;;
7487;SDS011;3785;52.260;4.728;2023-06-22T08:51:40;7.05;;;5.75;;
7487;SDS011;3785;52.260;4.728;2023-06-22T08:55:01;10.35;;;5.53;;
7487;SDS011;3785;52.260;4.728;2023-06-22T08:58:22;6.85;;;4.60;;
7487;SDS011;3785;52.260;4.728;2023-06-22T09:01:44;6.85;;;5.22;;
7487;SDS011;3785;52.260;4.728;2023-06-22T09:05:08;7.25;;;4.65;;
7487;SDS011;3785;52.260;4.728;2023-06-22T09:08:29;6.85;;;5.07;;
7487;SDS011;3785;52.260;4.728;2023-06-22T09:11:49;6.38;;;4.47;;
7487;SDS011;3785;52.260;4.728;2023-06-22T09:15:10;6.68;;;5.10;;
7487;SDS011;3785;52.260;4.728;2023-06-22T09:18:31;9.55;;;5.30;;
7487;SDS011;3785;52.260;4.728;2023-06-22T09:21:51;6.85;;;4.75;;
7487;SDS011;3785;52.260;4.728;2023-06-22T09:25:12;5.97;;;4.72;;
7487;SDS011;3785;52.260;4.728;2023-06-22T09:28:32;5.18;;;4.20;;
7487;SDS011;3785;52.260;4.728;2023-06-22T09:31:53;5.10;;;4.25;;
7487;SDS011;3785;52.260;4.728;2023-06-22T09:35:14;8.52;;;5.65;;
7487;SDS011;3785;52.260;4.728;2023-06-22T09:38:38;7.47;;;5.57;;
7487;SDS011;3785;52.260;4.728;2023-06-22T09:41:59;7.47;;;5.30;;
7487;SDS011;3785;52.260;4.728;2023-06-22T09:45:20;8.13;;;5.88;;
7487;SDS011;3785;52.260;4.728;2023-06-22T09:48:40;8.10;;;6.07;;
7487;SDS011;3785;52.260;4.728;2023-06-22T09:52:01;8.43;;;6.20;;
7487;SDS011;3785;52.260;4.728;2023-06-22T09:55:22;8.18;;;6.28;;
7487;SDS011;3785;52.260;4.728;2023-06-22T09:58:43;8.65;;;6.47;;
7487;SDS011;3785;52.260;4.728;2023-06-22T10:02:04;9.18;;;6.32;;
7487;SDS011;3785;52.260;4.728;2023-06-22T10:05:26;9.63;;;5.43;;
7487;SDS011;3785;52.260;4.728;2023-06-22T10:08:46;7.57;;;5.97;;
7487;SDS011;3785;52.260;4.728;2023-06-22T10:12:08;8.93;;;5.60;;
7487;SDS011;3785;52.260;4.728;2023-06-22T10:15:29;8.15;;;6.13;;
7487;SDS011;3785;52.260;4.728;2023-06-22T10:18:49;9.05;;;7.60;;
7487;SDS011;3785;52.260;4.728;2023-06-22T10:22:10;9.73;;;6.90;;
7487;SDS011;3785;52.260;4.728;2023-06-22T10:25:30;9.10;;;5.95;;
7487;SDS011;3785;52.260;4.728;2023-06-22T10:28:51;10.15;;;6.70;;
7487;SDS011;3785;52.260;4.728;2023-06-22T10:32:11;10.18;;;7.75;;
7487;SDS011;3785;52.260;4.728;2023-06-22T10:35:32;10.65;;;7.43;;
7487;SDS011;3785;52.260;4.728;2023-06-22T10:38:52;9.98;;;6.80;;
7487;SDS011;3785;52.260;4.728;2023-06-22T10:42:14;9.20;;;6.18;;
7487;SDS011;3785;52.260;4.728;2023-06-22T10:45:34;10.27;;;6.72;;
7487;SDS011;3785;52.260;4.728;2023-06-22T10:48:55;9.07;;;6.60;;
7487;SDS011;3785;52.260;4.728;2023-06-22T10:52:17;9.65;;;7.40;;
7487;SDS011;3785;52.260;4.728;2023-06-22T10:55:37;10.32;;;7.15;;
7487;SDS011;3785;52.260;4.728;2023-06-22T10:58:58;10.57;;;7.03;;
7487;SDS011;3785;52.260;4.728;2023-06-22T11:02:18;13.52;;;7.55;;
7487;SDS011;3785;52.260;4.728;2023-06-22T11:05:39;8.80;;;6.10;;
7487;SDS011;3785;52.260;4.728;2023-06-22T11:08:59;9.05;;;6.25;;
7487;SDS011;3785;52.260;4.728;2023-06-22T11:12:20;10.02;;;6.88;;
7487;SDS011;3785;52.260;4.728;2023-06-22T11:15:41;10.38;;;6.60;;
7487;SDS011;3785;52.260;4.728;2023-06-22T11:19:01;9.88;;;7.43;;
7487;SDS011;3785;52.260;4.728;2023-06-22T11:22:23;8.85;;;6.40;;
7487;SDS011;3785;52.260;4.728;2023-06-22T11:25:43;10.88;;;7.07;;
7487;SDS011;3785;52.260;4.728;2023-06-22T11:29:04;9.32;;;6.00;;
7487;SDS011;3785;52.260;4.728;2023-06-22T11:32:25;9.25;;;7.30;;
7487;SDS011;3785;52.260;4.728;2023-06-22T11:35:46;10.85;;;6.55;;
7487;SDS011;3785;52.260;4.728;2023-06-22T11:39:08;8.70;;;6.45;;
7487;SDS011;3785;52.260;4.728;2023-06-22T11:42:29;9.10;;;6.88;;
7487;SDS011;3785;52.260;4.728;2023-06-22T11:45:50;11.23;;;6.70;;
7487;SDS011;3785;52.260;4.728;2023-06-22T11:49:10;8.27;;;6.35;;
7487;SDS011;3785;52.260;4.728;2023-06-22T11:52:31;10.10;;;7.40;;
7487;SDS011;3785;52.260;4.728;2023-06-22T11:55:53;10.52;;;6.72;;
7487;SDS011;3785;52.260;4.728;2023-06-22T11:59:15;8.23;;;6.57;;
7487;SDS011;3785;52.260;4.728;2023-06-22T12:02:35;9.18;;;6.78;;
7487;SDS011;3785;52.260;4.728;2023-06-22T12:05:56;7.45;;;5.45;;
7487;SDS011;3785;52.260;4.728;2023-06-22T12:09:16;7.53;;;5.25;;
7487;SDS011;3785;52.260;4.728;2023-06-22T12:12:37;8.32;;;5.53;;
7487;SDS011;3785;52.260;4.728;2023-06-22T12:15:57;8.05;;;5.68;;
7487;SDS011;3785;52.260;4.728;2023-06-22T12:19:18;8.70;;;5.70;;
7487;SDS011;3785;52.260;4.728;2023-06-22T12:22:38;7.57;;;5.78;;
7487;SDS011;3785;52.260;4.728;2023-06-22T12:26:01;7.03;;;5.78;;
7487;SDS011;3785;52.260;4.728;2023-06-22T12:29:21;8.30;;;6.47;;
7487;SDS011;3785;52.260;4.728;2023-06-22T12:32:42;8.40;;;5.70;;
7487;SDS011;3785;52.260;4.728;2023-06-22T12:36:02;6.72;;;5.78;;
7487;SDS011;3785;52.260;4.728;2023-06-22T12:39:24;8.13;;;6.18;;
7487;SDS011;3785;52.260;4.728;2023-06-22T12:42:45;8.18;;;6.22;;
7487;SDS011;3785;52.260;4.728;2023-06-22T12:46:06;7.93;;;5.93;;
7487;SDS011;3785;52.260;4.728;2023-06-22T12:49:26;8.77;;;5.78;;
7487;SDS011;3785;52.260;4.728;2023-06-22T12:52:47;7.85;;;6.03;;
7487;SDS011;3785;52.260;4.728;2023-06-22T12:56:08;8.80;;;6.03;;
7487;SDS011;3785;52.260;4.728;2023-06-22T12:59:28;9.10;;;5.70;;
7487;SDS011;3785;52.260;4.728;2023-06-22T13:02:49;8.88;;;6.15;;
7487;SDS011;3785;52.260;4.728;2023-06-22T13:06:09;10.18;;;6.88;;
7487;SDS011;3785;52.260;4.728;2023-06-22T13:09:30;9.00;;;5.75;;
7487;SDS011;3785;52.260;4.728;2023-06-22T13:12:51;7.53;;;5.72;;
7487;SDS011;3785;52.260;4.728;2023-06-22T13:16:12;8.65;;;5.78;;
7487;SDS011;3785;52.260;4.728;2023-06-22T13:19:32;7.75;;;5.25;;
7487;SDS011;3785;52.260;4.728;2023-06-22T13:22:53;7.53;;;5.13;;
7487;SDS011;3785;52.260;4.728;2023-06-22T13:26:15;7.93;;;5.40;;
7487;SDS011;3785;52.260;4.728;2023-06-22T13:29:35;6.68;;;5.35;;
7487;SDS011;3785;52.260;4.728;2023-06-22T13:32:56;8.18;;;5.80;;
7487;SDS011;3785;52.260;4.728;2023-06-22T13:36:16;9.00;;;5.63;;
7487;SDS011;3785;52.260;4.728;2023-06-22T13:39:37;10.50;;;5.88;;
7487;SDS011;3785;52.260;4.728;2023-06-22T13:42:58;6.93;;;5.45;;
7487;SDS011;3785;52.260;4.728;2023-06-22T13:46:19;8.65;;;5.45;;
7487;SDS011;3785;52.260;4.728;2023-06-22T13:49:40;7.50;;;5.15;;
7487;SDS011;3785;52.260;4.728;2023-06-22T13:53:00;6.63;;;5.03;;
7487;SDS011;3785;52.260;4.728;2023-06-22T13:56:21;5.78;;;4.45;;
7487;SDS011;3785;52.260;4.728;2023-06-22T13:59:41;6.50;;;4.32;;
7487;SDS011;3785;52.260;4.728;2023-06-22T14:03:02;6.90;;;4.75;;
7487;SDS011;3785;52.260;4.728;2023-06-22T14:06:23;6.75;;;4.95;;
7487;SDS011;3785;52.260;4.728;2023-06-22T14:09:43;7.93;;;4.75;;
7487;SDS011;3785;52.260;4.728;2023-06-22T14:13:04;7.97;;;5.07;;
7487;SDS011;3785;52.260;4.728;2023-06-22T14:16:25;7.78;;;4.55;;
7487;SDS011;3785;52.260;4.728;2023-06-22T14:19:46;6.57;;;4.50;;
7487;SDS011;3785;52.260;4.728;2023-06-22T14:23:07;5.68;;;3.90;;
7487;SDS011;3785;52.260;4.728;2023-06-22T14:26:27;5.15;;;4.07;;
7487;SDS011;3785;52.260;4.728;2023-06-22T14:29:48;6.00;;;4.40;;
7487;SDS011;3785;52.260;4.728;2023-06-22T14:33:08;6.28;;;4.18;;
7487;SDS011;3785;52.260;4.728;2023-06-22T14:36:29;6.10;;;4.47;;
7487;SDS011;3785;52.260;4.728;2023-06-22T14:39:49;6.38;;;4.18;;
7487;SDS011;3785;52.260;4.728;2023-06-22T14:43:10;6.90;;;4.05;;
7487;SDS011;3785;52.260;4.728;2023-06-22T14:46:30;5.63;;;4.13;;
7487;SDS011;3785;52.260;4.728;2023-06-22T14:49:52;6.43;;;4.13;;
7487;SDS011;3785;52.260;4.728;2023-06-22T14:53:13;6.63;;;4.28;;
7487;SDS011;3785;52.260;4.728;2023-06-22T14:56:34;4.60;;;3.55;;
7487;SDS011;3785;52.260;4.728;2023-06-22T14:59:55;5.97;;;3.92;;
7487;SDS011;3785;52.260;4.728;2023-06-22T15:03:15;6.10;;;4.03;;
7487;SDS011;3785;52.260;4.728;2023-06-22T15:06:41;7.00;;;4.07;;
7487;SDS011;3785;52.260;4.728;2023-06-22T15:10:02;5.53;;;3.80;;
7487;SDS011;3785;52.260;4.728;2023-06-22T15:13:23;4.50;;;4.03;;
7487;SDS011;3785;52.260;4.728;2023-06-22T15:16:43;5.13;;;3.67;;
7487;SDS011;3785;52.260;4.728;2023-06-22T15:20:04;5.85;;;3.85;;
7487;SDS011;3785;52.260;4.728;2023-06-22T15:23:25;6.30;;;4.00;;
7487;SDS011;3785;52.260;4.728;2023-06-22T15:26:45;6.00;;;4.25;;
7487;SDS011;3785;52.260;4.728;2023-06-22T15:30:06;5.05;;;3.78;;
7487;SDS011;3785;52.260;4.728;2023-06-22T15:33:27;6.03;;;3.80;;
7487;SDS011;3785;52.260;4.728;2023-06-22T15:36:48;5.13;;;3.55;;
7487;SDS011;3785;52.260;4.728;2023-06-22T15:40:08;5.50;;;4.13;;
7487;SDS011;3785;52.260;4.728;2023-06-22T15:43:30;6.28;;;3.88;;
7487;SDS011;3785;52.260;4.728;2023-06-22T15:46:50;5.47;;;3.75;;
7487;SDS011;3785;52.260;4.728;2023-06-22T15:50:11;5.82;;;3.80;;
7487;SDS011;3785;52.260;4.728;2023-06-22T15:53:32;4.82;;;3.60;;
7487;SDS011;3785;52.260;4.728;2023-06-22T15:56:52;4.72;;;3.20;;
7487;SDS011;3785;52.260;4.728;2023-06-22T16:00:16;4.90;;;3.53;;
7487;SDS011;3785;52.260;4.728;2023-06-22T16:03:37;5.07;;;3.55;;
7487;SDS011;3785;52.260;4.728;2023-06-22T16:06:59;5.75;;;3.38;;
7487;SDS011;3785;52.260;4.728;2023-06-22T16:10:19;5.05;;;3.15;;
7487;SDS011;3785;52.260;4.728;2023-06-22T16:13:40;5.38;;;3.22;;
7487;SDS011;3785;52.260;4.728;2023-06-22T16:17:01;5.60;;;2.92;;
7487;SDS011;3785;52.260;4.728;2023-06-22T16:20:21;4.55;;;2.83;;
7487;SDS011;3785;52.260;4.728;2023-06-22T16:23:42;5.88;;;3.38;;
7487;SDS011;3785;52.260;4.728;2023-06-22T16:27:02;4.15;;;3.10;;
7487;SDS011;3785;52.260;4.728;2023-06-22T16:30:23;4.78;;;3.25;;
7487;SDS011;3785;52.260;4.728;2023-06-22T16:33:43;3.60;;;2.88;;
7487;SDS011;3785;52.260;4.728;2023-06-22T16:37:07;5.35;;;3.47;;
7487;SDS011;3785;52.260;4.728;2023-06-22T16:40:28;7.05;;;3.40;;
7487;SDS011;3785;52.260;4.728;2023-06-22T16:43:48;4.57;;;2.58;;
7487;SDS011;3785;52.260;4.728;2023-06-22T16:47:09;5.22;;;2.92;;
7487;SDS011;3785;52.260;4.728;2023-06-22T16:50:30;4.88;;;2.58;;
7487;SDS011;3785;52.260;4.728;2023-06-22T16:53:53;3.60;;;2.40;;
7487;SDS011;3785;52.260;4.728;2023-06-22T16:57:15;3.20;;;2.35;;
7487;SDS011;3785;52.260;4.728;2023-06-22T17:00:37;4.38;;;2.20;;
7487;SDS011;3785;52.260;4.728;2023-06-22T17:04:03;3.72;;;2.03;;
7487;SDS011;3785;52.260;4.728;2023-06-22T17:07:25;2.58;;;1.60;;
7487;SDS011;3785;52.260;4.728;2023-06-22T17:10:47;3.95;;;2.20;;
7487;SDS011;3785;52.260;4.728;2023-06-22T17:14:07;3.55;;;1.92;;
7487;SDS011;3785;52.260;4.728;2023-06-22T17:17:28;2.92;;;1.70;;
7487;SDS011;3785;52.260;4.728;2023-06-22T17:20:50;2.53;;;1.80;;
7487;SDS011;3785;52.260;4.728;2023-06-22T17:24:11;4.00;;;1.83;;
7487;SDS011;3785;52.260;4.728;2023-06-22T17:27:33;2.05;;;1.33;;
7487;SDS011;3785;52.260;4.728;2023-06-22T17:31:28;3.65;;;1.65;;
7487;SDS011;3785;52.260;4.728;2023-06-22T17:34:42;4.72;;;1.67;;
7487;SDS011;3785;52.260;4.728;2023-06-22T17:38:02;2.50;;;1.30;;
7487;SDS011;3785;52.260;4.728;2023-06-22T17:41:31;3.67;;;1.50;;
7487;SDS011;3785;52.260;4.728;2023-06-22T17:44:52;3.03;;;1.17;;
7487;SDS011;3785;52.260;4.728;2023-06-22T17:48:20;2.95;;;1.23;;
7487;SDS011;3785;52.260;4.728;2023-06-22T17:51:42;2.55;;;0.73;;
7487;SDS011;3785;52.260;4.728;2023-06-22T17:55:03;2.28;;;0.80;;
7487;SDS011;3785;52.260;4.728;2023-06-22T17:58:24;1.60;;;0.90;;
7487;SDS011;3785;52.260;4.728;2023-06-22T18:01:45;2.33;;;1.02;;
7487;SDS011;3785;52.260;4.728;2023-06-22T18:05:06;2.72;;;1.00;;
7487;SDS011;3785;52.260;4.728;2023-06-22T18:08:27;1.27;;;0.82;;
7487;SDS011;3785;52.260;4.728;2023-06-22T18:11:48;1.92;;;0.90;;
7487;SDS011;3785;52.260;4.728;2023-06-22T18:15:10;1.70;;;0.63;;
7487;SDS011;3785;52.260;4.728;2023-06-22T18:18:31;1.95;;;0.90;;
7487;SDS011;3785;52.260;4.728;2023-06-22T18:21:52;1.90;;;0.88;;
7487;SDS011;3785;52.260;4.728;2023-06-22T18:25:13;2.22;;;0.80;;
7487;SDS011;3785;52.260;4.728;2023-06-22T18:28:36;1.45;;;0.90;;
7487;SDS011;3785;52.260;4.728;2023-06-22T18:31:58;2.10;;;1.10;;
7487;SDS011;3785;52.260;4.728;2023-06-22T18:35:18;1.83;;;0.82;;
7487;SDS011;3785;52.260;4.728;2023-06-22T18:38:41;2.42;;;1.30;;
7487;SDS011;3785;52.260;4.728;2023-06-22T18:42:02;1.45;;;0.93;;
7487;SDS011;3785;52.260;4.728;2023-06-22T18:45:23;1.23;;;0.73;;
7487;SDS011;3785;52.260;4.728;2023-06-22T18:48:48;3.47;;;0.90;;
7487;SDS011;3785;52.260;4.728;2023-06-22T18:55:30;1.90;;;1.23;;
7487;SDS011;3785;52.260;4.728;2023-06-22T18:58:55;2.53;;;1.30;;
7487;SDS011;3785;52.260;4.728;2023-06-22T19:05:49;1.73;;;1.02;;
7487;SDS011;3785;52.260;4.728;2023-06-22T19:09:13;1.75;;;0.98;;
7487;SDS011;3785;52.260;4.728;2023-06-22T19:12:35;2.90;;;1.33;;
7487;SDS011;3785;52.260;4.728;2023-06-22T19:15:59;2.08;;;1.30;;
7487;SDS011;3785;52.260;4.728;2023-06-22T19:19:21;2.17;;;1.30;;
7487;SDS011;3785;52.260;4.728;2023-06-22T19:26:07;2.13;;;1.40;;
7487;SDS011;3785;52.260;4.728;2023-06-22T19:29:28;1.92;;;1.50;;
7487;SDS011;3785;52.260;4.728;2023-06-22T19:32:49;2.80;;;1.80;;
7487;SDS011;3785;52.260;4.728;2023-06-22T19:36:09;2.25;;;1.50;;
7487;SDS011;3785;52.260;4.728;2023-06-22T19:39:36;2.22;;;1.50;;
7487;SDS011;3785;52.260;4.728;2023-06-22T19:42:57;4.00;;;1.55;;
7487;SDS011;3785;52.260;4.728;2023-06-22T19:46:17;2.92;;;1.42;;
7487;SDS011;3785;52.260;4.728;2023-06-22T19:49:45;2.28;;;1.58;;
7487;SDS011;3785;52.260;4.728;2023-06-22T19:56:29;2.50;;;1.58;;
7487;SDS011;3785;52.260;4.728;2023-06-22T19:59:51;2.30;;;1.23;;
7487;SDS011;3785;52.260;4.728;2023-06-22T20:03:16;2.67;;;1.75;;
7487;SDS011;3785;52.260;4.728;2023-06-22T20:06:37;2.53;;;1.50;;
7487;SDS011;3785;52.260;4.728;2023-06-22T20:13:28;3.03;;;1.80;;
7487;SDS011;3785;52.260;4.728;2023-06-22T20:16:49;2.58;;;1.80;;
7487;SDS011;3785;52.260;4.728;2023-06-22T20:20:24;3.42;;;2.00;;
7487;SDS011;3785;52.260;4.728;2023-06-22T20:23:45;2.25;;;1.73;;
7487;SDS011;3785;52.260;4.728;2023-06-22T20:27:09;3.78;;;2.08;;
7487;SDS011;3785;52.260;4.728;2023-06-22T20:30:31;3.35;;;1.90;;
7487;SDS011;3785;52.260;4.728;2023-06-22T20:34:03;2.17;;;1.55;;
7487;SDS011;3785;52.260;4.728;2023-06-22T20:37:23;2.80;;;1.70;;
7487;SDS011;3785;52.260;4.728;2023-06-22T20:40:52;2.72;;;1.63;;
7487;SDS011;3785;52.260;4.728;2023-06-22T20:44:13;3.08;;;1.90;;
7487;SDS011;3785;52.260;4.728;2023-06-22T20:47:33;4.63;;;1.73;;
7487;SDS011;3785;52.260;4.728;2023-06-22T20:50:54;2.78;;;2.05;;
7487;SDS011;3785;52.260;4.728;2023-06-22T20:54:17;2.95;;;1.95;;
7487;SDS011;3785;52.260;4.728;2023-06-22T20:57:37;3.30;;;1.83;;
7487;SDS011;3785;52.260;4.728;2023-06-22T21:00:58;3.35;;;2.30;;
7487;SDS011;3785;52.260;4.728;2023-06-22T21:04:20;3.40;;;2.38;;